Terminal Aerodrome Forecast
Issued by NWS

Current Version | Previous Version | Text Only | Print | Product List | Glossary On
Versions: 1 2 3 4 5 6 7 8 9 10 11 12 13 14 15 16 17 18 19 20 21 22 23 24
000
FTUS43 KDVN 282349
TAFBRL
TAF
KBRL 282349Z 2900/2924 17006KT P6SM VCSH BKN080
     FM290500 17006KT P6SM VCTS OVC080CB
     FM291100 19006KT 5SM BR VCSH OVC030
     FM291400 20008KT P6SM BKN120
     FM292000 20012KT P6SM VCTS BKN040CB=

USA.gov is the U.S. government's official web portal to all federal, state and local government web resources and services.